Time;durP1;ratioP1;P1;durP2;ratioP2;P2;SDS_P1;SDS_P2;PMS_P1;PMS_P2;Temp;Humidity;BMP_temperature;BMP_pressure;BME280_temperature;BME280_humidity;BME280_pressure;Samples;Min_cycle;Max_cycle;Signal;HPM_P1;HPM_P2
2021/12/29 00:01:26;;;;;;;132.20;12.35;;;6.70;99.90;;;;;;5054457;28;20055;-79
2021/12/29 00:03:52;;;;;;;103.85;11.13;;;6.10;99.90;;;;;;5069191;28;20138;-81
2021/12/29 00:06:18;;;;;;;94.40;12.40;;;6.10;99.90;;;;;;5085542;28;20381;-79
2021/12/29 00:08:44;;;;;;;78.38;13.07;;;6.10;99.90;;;;;;5072131;28;20050;-78
2021/12/29 00:11:10;;;;;;;63.45;12.20;;;6.10;99.90;;;;;;5072743;28;20048;-78
2021/12/29 00:13:35;;;;;;;62.47;13.45;;;6.20;99.90;;;;;;5072546;28;20047;-78
2021/12/29 00:16:02;;;;;;;71.95;14.70;;;6.30;99.90;;;;;;5058780;28;20048;-79
2021/12/29 00:18:31;;;;;;;59.38;14.02;;;6.30;99.90;;;;;;5071437;28;20496;-79
2021/12/29 00:20:59;;;;;;;57.30;14.95;;;6.40;99.90;;;;;;5073005;28;20400;-79
2021/12/29 00:23:25;;;;;;;55.58;13.60;;;6.60;99.90;;;;;;5073151;28;20048;-79
2021/12/29 00:25:51;;;;;;;61.20;15.40;;;6.50;99.90;;;;;;5056132;28;20130;-79
2021/12/29 00:28:17;;;;;;;50.22;15.05;;;6.70;99.90;;;;;;5074609;28;20046;-78
2021/12/29 00:30:43;;;;;;;60.00;17.20;;;6.70;99.90;;;;;;5056131;28;20047;-79
2021/12/29 00:33:09;;;;;;;58.95;17.10;;;6.70;99.90;;;;;;5088195;28;20093;-78
2021/12/29 00:35:38;;;;;;;55.80;16.67;;;6.80;99.90;;;;;;5057705;28;20048;-79
2021/12/29 00:38:07;;;;;;;54.95;17.10;;;6.80;99.90;;;;;;5072683;28;20040;-79
2021/12/29 00:40:34;;;;;;;54.08;15.60;;;6.90;99.90;;;;;;5074922;28;20047;-79
2021/12/29 00:43:00;;;;;;;43.20;14.18;;;6.90;99.90;;;;;;5083737;28;20079;-78
2021/12/29 00:45:26;;;;;;;48.45;16.05;;;6.90;99.90;;;;;;5069386;28;20139;-79
2021/12/29 00:47:53;;;;;;;40.97;13.63;;;6.90;99.90;;;;;;5072531;28;20038;-80
2021/12/29 00:50:19;;;;;;;39.50;14.07;;;6.90;99.90;;;;;;5086990;28;20039;-79
2021/12/29 00:52:46;;;;;;;32.55;12.98;;;6.90;99.90;;;;;;5040386;28;20047;-79
2021/12/29 00:55:14;;;;;;;38.10;14.68;;;6.90;99.90;;;;;;5088271;28;20130;-79
2021/12/29 00:57:40;;;;;;;39.25;14.70;;;6.90;99.90;;;;;;5070773;28;20071;-79
2021/12/29 01:00:14;;;;;;;37.72;14.00;;;6.90;99.90;;;;;;5057663;28;20049;-79
2021/12/29 01:02:39;;;;;;;38.92;13.77;;;6.90;99.90;;;;;;5084613;28;20060;-80
2021/12/29 01:05:07;;;;;;;37.45;12.50;;;6.80;99.90;;;;;;5072219;28;20046;-79
2021/12/29 01:07:32;;;;;;;37.83;12.93;;;6.70;99.90;;;;;;5087027;28;20050;-79
2021/12/29 01:09:59;;;;;;;34.60;12.15;;;6.70;99.90;;;;;;5072406;28;20036;-80
2021/12/29 01:12:25;;;;;;;32.50;11.77;;;7.30;99.90;;;;;;5086885;28;20396;-80
2021/12/29 01:14:55;;;;;;;29.92;12.30;;;6.50;99.90;;;;;;5086244;28;20054;-79
2021/12/29 01:17:22;;;;;;;33.60;12.40;;;6.50;99.90;;;;;;5082793;28;20143;-79
2021/12/29 01:19:49;;;;;;;29.92;10.93;;;6.50;99.90;;;;;;5073003;28;20168;-79
2021/12/29 01:22:16;;;;;;;27.58;10.50;;;6.50;99.90;;;;;;5069568;28;20047;-79
2021/12/29 01:24:45;;;;;;;22.48;8.65;;;7.40;99.90;;;;;;5056861;28;20420;-79
2021/12/29 01:27:12;;;;;;;22.50;9.35;;;6.60;99.90;;;;;;5072653;28;20495;-78
2021/12/29 01:29:37;;;;;;;23.50;10.02;;;6.70;99.90;;;;;;5071533;28;20043;-80
2021/12/29 01:32:04;;;;;;;16.30;8.05;;;6.70;99.90;;;;;;5086970;28;20047;-79
2021/12/29 01:34:30;;;;;;;15.15;7.53;;;6.70;99.90;;;;;;5087501;28;20870;-79
2021/12/29 01:36:56;;;;;;;17.52;8.18;;;6.80;99.90;;;;;;5086539;28;20062;-79
2021/12/29 01:39:22;;;;;;;21.00;7.78;;;6.80;99.90;;;;;;5074426;28;20467;-79
2021/12/29 01:41:50;;;;;;;18.80;7.32;;;6.80;99.90;;;;;;5069815;28;20051;-79
2021/12/29 01:44:18;;;;;;;14.20;6.00;;;6.80;99.90;;;;;;5072908;28;20044;-79
2021/12/29 01:46:45;;;;;;;14.25;5.78;;;6.90;99.90;;;;;;5080098;28;20262;-79
2021/12/29 01:49:11;;;;;;;15.23;5.25;;;6.90;99.90;;;;;;5070489;28;20039;-79
2021/12/29 01:51:47;;;;;;;12.32;5.88;;;7.00;99.90;;;;;;5072106;28;20047;-80
2021/12/29 01:54:23;;;;;;;17.02;5.32;;;7.00;99.90;;;;;;5066383;28;20056;-79
2021/12/29 01:56:51;;;;;;;15.10;5.32;;;7.10;99.90;;;;;;5071067;28;20130;-79
2021/12/29 01:59:17;;;;;;;13.75;5.93;;;7.00;99.90;;;;;;5089712;28;20082;-80
2021/12/29 02:01:43;;;;;;;22.63;7.07;;;8.00;99.90;;;;;;5071359;28;20398;-80
2021/12/29 02:04:09;;;;;;;17.60;6.90;;;7.10;99.90;;;;;;5069300;28;20051;-80
2021/12/29 02:06:35;;;;;;;21.90;7.35;;;7.10;99.90;;;;;;5056807;28;20050;-79
2021/12/29 02:09:02;;;;;;;21.30;7.43;;;7.10;99.90;;;;;;5070584;28;20039;-79
2021/12/29 02:11:31;;;;;;;26.42;9.65;;;7.10;99.90;;;;;;5106074;28;20039;-79
2021/12/29 02:14:02;;;;;;;18.95;8.75;;;7.10;99.90;;;;;;5070901;28;20071;-80
2021/12/29 02:16:28;;;;;;;21.00;7.93;;;7.10;99.90;;;;;;5071123;28;20549;-80
2021/12/29 02:19:03;;;;;;;25.83;8.38;;;6.70;99.90;;;;;;5068988;28;20556;-79
2021/12/29 02:21:30;;;;;;;26.85;8.55;;;7.00;99.90;;;;;;5072124;28;20067;-80
2021/12/29 02:26:32;;;;;;;;;;;7.30;99.90;;;;;;5084734;28;20052;-80
2021/12/29 02:29:01;;;;;;;31.08;7.75;;;6.90;99.90;;;;;;5070828;28;20006;-80
2021/12/29 02:31:27;;;;;;;31.23;8.13;;;7.00;99.90;;;;;;5069653;28;20043;-79
2021/12/29 02:33:54;;;;;;;25.75;7.70;;;7.00;99.90;;;;;;5085258;28;20052;-80
2021/12/29 02:36:21;;;;;;;28.92;8.15;;;7.00;99.90;;;;;;5052059;28;20459;-79
2021/12/29 02:38:51;;;;;;;33.92;9.40;;;7.00;99.90;;;;;;5071588;28;20048;-79
2021/12/29 02:41:18;;;;;;;24.65;8.02;;;7.20;99.90;;;;;;5086462;28;20044;-79
2021/12/29 02:43:44;;;;;;;27.52;8.63;;;6.90;99.90;;;;;;5080607;28;20040;-79
2021/12/29 02:46:13;;;;;;;31.08;8.82;;;6.90;99.90;;;;;;5086535;28;20362;-79
2021/12/29 02:48:55;;;;;;;34.72;9.27;;;6.90;99.90;;;;;;5080531;28;20062;-79
2021/12/29 02:51:21;;;;;;;33.08;9.15;;;6.80;99.90;;;;;;5082114;28;20055;-79
2021/12/29 02:53:47;;;;;;;33.60;9.55;;;6.80;99.90;;;;;;5068356;28;20048;-79
2021/12/29 02:56:13;;;;;;;23.50;9.00;;;6.80;99.90;;;;;;5054716;28;20407;-79
2021/12/29 02:58:38;;;;;;;26.33;9.38;;;6.70;99.90;;;;;;5084847;28;20043;-80
2021/12/29 03:01:11;;;;;;;26.05;9.25;;;6.70;99.90;;;;;;5064002;28;20043;-79
2021/12/29 03:03:37;;;;;;;30.23;9.25;;;6.70;99.90;;;;;;5085588;28;20094;-79
2021/12/29 03:06:05;;;;;;;21.30;8.05;;;6.70;99.90;;;;;;5055250;28;20081;-80
2021/12/29 03:08:30;;;;;;;27.73;8.85;;;6.70;99.90;;;;;;5068368;28;20044;-80
2021/12/29 03:10:56;;;;;;;26.42;9.48;;;6.60;99.90;;;;;;5085328;28;20536;-79
2021/12/29 03:13:25;;;;;;;26.95;9.20;;;6.70;99.90;;;;;;5065062;28;20050;-79
2021/12/29 03:15:51;;;;;;;25.48;9.07;;;6.70;99.90;;;;;;5101161;28;20044;-79
2021/12/29 03:18:17;;;;;;;23.92;8.63;;;6.60;99.90;;;;;;5085372;28;20115;-79
2021/12/29 03:20:44;;;;;;;27.17;8.63;;;6.70;99.90;;;;;;5084234;28;20039;-79
2021/12/29 03:23:10;;;;;;;22.77;8.27;;;6.60;99.90;;;;;;5102077;28;20481;-79
2021/12/29 03:25:36;;;;;;;21.08;8.40;;;6.70;99.90;;;;;;5069367;28;20096;-79
2021/12/29 03:28:03;;;;;;;22.83;8.45;;;6.70;99.90;;;;;;5051840;28;20036;-79
2021/12/29 03:30:32;;;;;;;23.10;8.10;;;6.60;99.90;;;;;;5052391;28;20058;-79
2021/12/29 03:33:05;;;;;;;24.23;8.65;;;7.60;99.90;;;;;;5098500;28;20043;-79
2021/12/29 03:35:37;;;;;;;25.90;8.07;;;6.70;99.90;;;;;;5081391;28;20036;-80
2021/12/29 03:38:05;;;;;;;19.10;8.43;;;6.70;99.90;;;;;;5086689;28;20123;-79
2021/12/29 03:40:35;;;;;;;19.55;7.57;;;6.60;99.90;;;;;;5065560;28;20484;-79
2021/12/29 03:43:02;;;;;;;22.60;8.40;;;7.00;99.90;;;;;;5102343;28;20043;-79
2021/12/29 03:45:28;;;;;;;19.33;8.52;;;6.70;99.90;;;;;;5084926;28;20067;-79
2021/12/29 03:47:54;;;;;;;21.83;9.15;;;6.70;99.90;;;;;;5085380;28;20588;-79
2021/12/29 03:50:20;;;;;;;25.42;8.57;;;6.70;99.90;;;;;;5088089;28;20039;-79
2021/12/29 03:52:45;;;;;;;17.73;9.00;;;6.70;99.90;;;;;;5068868;28;20127;-79
2021/12/29 03:55:11;;;;;;;23.13;8.57;;;6.70;99.90;;;;;;5053408;28;20058;-79
2021/12/29 03:57:37;;;;;;;23.63;9.27;;;6.70;99.90;;;;;;5053175;28;20160;-79
2021/12/29 04:00:06;;;;;;;25.52;8.60;;;7.10;99.90;;;;;;5080053;28;20476;-79
2021/12/29 04:02:32;;;;;;;23.98;8.45;;;6.80;99.90;;;;;;5082569;28;20112;-79
2021/12/29 04:04:57;;;;;;;24.13;8.00;;;6.80;99.90;;;;;;5082387;28;20051;-79
2021/12/29 04:07:23;;;;;;;22.67;8.57;;;6.70;99.90;;;;;;5069542;28;20062;-79
2021/12/29 04:09:49;;;;;;;25.52;7.78;;;6.70;99.90;;;;;;5052989;28;20152;-78
2021/12/29 04:12:15;;;;;;;21.38;7.30;;;6.60;99.90;;;;;;5064907;28;20052;-79
2021/12/29 04:14:41;;;;;;;21.80;6.63;;;6.50;99.90;;;;;;5063266;28;20043;-79
2021/12/29 04:17:12;;;;;;;18.52;7.55;;;6.50;99.90;;;;;;5054011;28;20477;-79
2021/12/29 04:22:29;;;;;;;21.13;7.38;;;6.40;99.90;;;;;;5054848;28;20505;-78
2021/12/29 04:24:55;;;;;;;27.27;7.47;;;6.50;99.90;;;;;;5069055;28;20105;-78
2021/12/29 04:27:23;;;;;;;19.02;7.82;;;6.40;99.90;;;;;;5048512;28;20040;-78
2021/12/29 04:29:49;;;;;;;27.90;7.63;;;6.90;99.90;;;;;;5051490;28;20047;-79
2021/12/29 04:32:15;;;;;;;27.30;7.68;;;6.40;99.90;;;;;;5084367;28;20546;-78
2021/12/29 04:34:40;;;;;;;24.35;7.97;;;6.80;99.90;;;;;;5052843;28;20047;-78
2021/12/29 04:37:06;;;;;;;23.52;7.32;;;6.40;99.90;;;;;;5103453;28;20118;-77
2021/12/29 04:39:32;;;;;;;16.73;6.40;;;6.30;99.90;;;;;;5048948;28;20126;-78
2021/12/29 04:41:58;;;;;;;22.10;6.53;;;6.80;99.90;;;;;;5052428;28;20228;-78
2021/12/29 04:44:24;;;;;;;18.33;6.15;;;6.40;99.90;;;;;;5077688;28;20051;-78
2021/12/29 04:46:50;;;;;;;18.65;6.47;;;6.20;99.90;;;;;;5068166;28;20700;-78
2021/12/29 04:49:22;;;;;;;20.15;5.95;;;6.20;99.90;;;;;;5085019;28;20071;-78
2021/12/29 04:51:55;;;;;;;16.70;5.80;;;6.30;99.90;;;;;;5070645;28;20043;-78
2021/12/29 04:54:21;;;;;;;19.08;6.10;;;6.30;99.90;;;;;;5068875;28;20044;-78
2021/12/29 04:56:47;;;;;;;21.73;5.78;;;6.30;99.90;;;;;;5087146;28;20508;-78
2021/12/29 04:59:15;;;;;;;23.30;5.70;;;6.20;99.90;;;;;;5074136;28;20043;-78
2021/12/29 05:01:42;;;;;;;18.02;5.68;;;6.30;99.90;;;;;;5083688;28;20482;-79
2021/12/29 05:04:08;;;;;;;25.83;6.45;;;6.30;99.90;;;;;;5072884;28;20413;-78
2021/12/29 05:09:18;;;;;;;17.60;5.95;;;6.30;99.90;;;;;;5060937;28;20417;-81
2021/12/29 05:11:43;;;;;;;21.65;7.05;;;6.30;99.90;;;;;;5056025;28;20044;-81
2021/12/29 05:14:09;;;;;;;22.23;6.72;;;6.30;99.90;;;;;;5071495;28;20794;-81
2021/12/29 05:16:35;;;;;;;27.08;7.20;;;6.40;99.90;;;;;;5056162;28;20512;-81
2021/12/29 05:19:00;;;;;;;25.95;7.57;;;6.40;99.90;;;;;;5052975;28;20036;-81
2021/12/29 05:21:26;;;;;;;31.45;7.80;;;6.40;99.90;;;;;;5056124;28;20397;-81
2021/12/29 05:23:53;;;;;;;38.50;8.65;;;6.30;99.90;;;;;;5047847;28;20039;-80
2021/12/29 05:26:19;;;;;;;37.25;8.98;;;6.40;99.90;;;;;;5082746;28;20043;-80
2021/12/29 05:28:45;;;;;;;50.97;10.77;;;6.40;99.90;;;;;;5055932;28;20051;-80
2021/12/29 05:31:11;;;;;;;84.47;10.60;;;6.40;99.90;;;;;;5037659;28;20047;-81
2021/12/29 05:33:37;;;;;;;75.18;10.45;;;6.40;99.90;;;;;;5053571;28;20491;-80
2021/12/29 05:36:03;;;;;;;92.45;10.88;;;6.40;99.90;;;;;;5056406;28;20035;-81
2021/12/29 05:38:29;;;;;;;84.03;10.18;;;6.40;99.90;;;;;;5069771;28;20052;-81
2021/12/29 05:40:55;;;;;;;80.82;9.73;;;6.40;99.90;;;;;;5087212;28;20520;-81
2021/12/29 05:43:21;;;;;;;75.57;9.70;;;7.20;99.90;;;;;;5069980;28;20807;-81
2021/12/29 05:45:49;;;;;;;120.13;11.13;;;6.50;99.90;;;;;;5087104;28;20044;-82
2021/12/29 05:48:15;;;;;;;77.70;9.68;;;6.50;99.90;;;;;;5072123;28;20549;-82
2021/12/29 05:50:41;;;;;;;82.55;9.93;;;6.50;99.90;;;;;;5081826;28;20051;-81
2021/12/29 05:53:07;;;;;;;102.22;9.60;;;6.60;99.90;;;;;;5053149;28;20066;-81
2021/12/29 05:55:33;;;;;;;102.88;10.52;;;6.60;99.90;;;;;;5086586;28;20085;-81
2021/12/29 05:57:59;;;;;;;75.93;9.63;;;7.00;99.90;;;;;;5068672;28;20070;-81
2021/12/29 06:00:27;;;;;;;77.22;9.77;;;6.70;99.90;;;;;;5072292;28;20075;-80
2021/12/29 06:02:54;;;;;;;125.82;11.60;;;6.60;99.90;;;;;;5065601;28;20146;-79
2021/12/29 06:05:23;;;;;;;82.93;9.85;;;6.70;99.90;;;;;;5054984;28;20048;-78
2021/12/29 06:07:49;;;;;;;88.65;10.25;;;6.70;99.90;;;;;;5078937;28;20101;-78
2021/12/29 06:10:15;;;;;;;105.10;10.48;;;6.70;99.90;;;;;;5072329;28;20043;-78
2021/12/29 06:12:41;;;;;;;120.00;11.25;;;6.70;99.90;;;;;;5053511;28;20051;-79
2021/12/29 06:15:08;;;;;;;105.72;9.98;;;6.70;99.90;;;;;;5064582;28;20153;-78
2021/12/29 06:17:34;;;;;;;138.27;11.93;;;6.80;99.90;;;;;;5069915;28;20047;-78
2021/12/29 06:20:00;;;;;;;135.02;12.10;;;6.70;99.90;;;;;;5071705;28;20043;-79
2021/12/29 06:22:26;;;;;;;148.38;12.60;;;6.70;99.90;;;;;;5072356;28;20561;-78
2021/12/29 06:24:52;;;;;;;104.47;10.95;;;6.90;99.90;;;;;;5071280;28;20097;-78
2021/12/29 06:27:19;;;;;;;130.00;13.73;;;7.50;99.90;;;;;;5086885;28;20093;-78
2021/12/29 06:29:45;;;;;;;102.72;10.90;;;6.70;99.90;;;;;;5055184;28;20062;-77
2021/12/29 06:32:11;;;;;;;116.38;11.60;;;6.70;99.90;;;;;;5071313;28;20055;-78
2021/12/29 06:34:37;;;;;;;88.47;10.27;;;6.70;99.90;;;;;;5063369;28;20096;-78
2021/12/29 06:37:08;;;;;;;85.88;9.73;;;6.60;99.90;;;;;;5070408;28;20047;-80
2021/12/29 06:39:36;;;;;;;93.10;10.55;;;6.60;99.90;;;;;;5040366;28;20112;-80
2021/12/29 06:42:03;;;;;;;101.97;10.07;;;6.80;99.90;;;;;;5068100;28;20092;-80
2021/12/29 06:44:29;;;;;;;121.45;12.07;;;6.60;99.90;;;;;;5071431;28;20087;-79
2021/12/29 06:46:54;;;;;;;116.18;10.32;;;6.60;99.90;;;;;;5084155;28;20036;-79
2021/12/29 06:49:21;;;;;;;90.85;9.57;;;6.60;99.90;;;;;;5055033;28;20090;-80
2021/12/29 06:51:48;;;;;;;122.88;11.77;;;6.60;99.90;;;;;;5069193;28;20051;-79
2021/12/29 06:54:14;;;;;;;116.68;11.85;;;6.50;99.90;;;;;;5054372;28;20488;-79
2021/12/29 06:56:40;;;;;;;117.18;11.38;;;6.50;99.90;;;;;;5072648;28;20051;-78
2021/12/29 06:59:06;;;;;;;72.53;9.70;;;6.50;99.90;;;;;;5068130;28;20035;-78
2021/12/29 07:01:32;;;;;;;98.85;10.95;;;6.50;99.90;;;;;;5085515;28;20040;-78
2021/12/29 07:03:58;;;;;;;62.58;9.20;;;6.50;99.90;;;;;;5070372;28;20116;-79
2021/12/29 07:06:25;;;;;;;50.55;8.70;;;6.50;99.90;;;;;;5086676;28;20044;-79
2021/12/29 07:08:50;;;;;;;31.40;7.13;;;6.50;99.90;;;;;;5055481;28;20282;-79
2021/12/29 07:11:16;;;;;;;30.02;7.43;;;6.50;99.90;;;;;;5085549;28;20036;-78
2021/12/29 07:13:44;;;;;;;21.70;7.25;;;6.50;99.90;;;;;;5063707;28;20628;-82
2021/12/29 07:16:10;;;;;;;29.90;7.65;;;6.60;99.90;;;;;;5069495;28;20864;-78
2021/12/29 07:18:36;;;;;;;26.73;7.72;;;6.60;99.90;;;;;;5063933;28;20043;-78
2021/12/29 07:21:02;;;;;;;26.73;7.10;;;6.90;99.90;;;;;;5068736;28;20043;-79
2021/12/29 07:23:28;;;;;;;22.25;6.97;;;6.70;99.90;;;;;;5084882;28;20100;-78
2021/12/29 07:25:54;;;;;;;25.42;6.40;;;6.70;99.90;;;;;;5085325;28;20048;-78
2021/12/29 07:28:20;;;;;;;28.20;7.63;;;6.70;99.90;;;;;;5069469;28;20483;-79
2021/12/29 07:30:45;;;;;;;26.15;7.10;;;6.70;99.90;;;;;;5069259;28;20067;-78
2021/12/29 07:33:11;;;;;;;21.88;6.38;;;6.70;99.90;;;;;;5055560;28;20126;-77
2021/12/29 07:35:37;;;;;;;22.58;5.70;;;6.70;99.90;;;;;;5056159;28;20047;-77
2021/12/29 07:38:03;;;;;;;20.98;6.32;;;6.60;99.90;;;;;;5071881;28;20048;-77
2021/12/29 07:40:30;;;;;;;18.05;5.57;;;6.50;99.90;;;;;;5073328;28;20063;-78
2021/12/29 07:42:56;;;;;;;17.42;5.18;;;6.50;99.90;;;;;;5056153;28;20051;-78
2021/12/29 07:45:24;;;;;;;21.08;5.22;;;6.50;99.90;;;;;;5073391;28;20636;-77
2021/12/29 07:47:50;;;;;;;19.02;4.82;;;6.50;99.90;;;;;;5069809;28;20974;-77
2021/12/29 07:50:18;;;;;;;18.73;4.88;;;6.50;99.90;;;;;;5071644;28;20164;-78
2021/12/29 07:52:47;;;;;;;18.73;5.13;;;6.50;99.90;;;;;;5051292;28;20079;-78
2021/12/29 07:55:18;;;;;;;14.32;4.57;;;6.50;99.90;;;;;;5071905;28;20077;-78
2021/12/29 07:57:44;;;;;;;15.52;4.70;;;6.50;99.90;;;;;;5072681;28;20417;-78
2021/12/29 08:00:11;;;;;;;14.32;4.57;;;6.50;99.90;;;;;;5073244;28;20044;-77
2021/12/29 08:02:37;;;;;;;16.50;4.72;;;6.60;99.90;;;;;;5069861;28;20564;-78
2021/12/29 08:05:07;;;;;;;16.73;4.55;;;6.70;99.90;;;;;;5049710;28;20062;-78
2021/12/29 08:07:34;;;;;;;17.88;4.78;;;6.60;99.90;;;;;;5084282;28;20052;-78
2021/12/29 08:10:00;;;;;;;18.58;4.20;;;6.60;99.90;;;;;;5049323;28;20081;-79
2021/12/29 08:12:26;;;;;;;17.77;4.57;;;6.60;99.90;;;;;;5071275;28;20109;-78
2021/12/29 08:14:52;;;;;;;20.05;4.85;;;6.60;99.90;;;;;;5066897;28;20123;-78
2021/12/29 08:17:18;;;;;;;17.40;4.32;;;6.60;99.90;;;;;;5079494;28;20056;-77
2021/12/29 08:19:44;;;;;;;15.88;4.35;;;6.60;99.90;;;;;;5066671;28;20096;-79
2021/12/29 08:22:11;;;;;;;16.15;4.35;;;6.70;99.90;;;;;;5083933;28;20511;-78
2021/12/29 08:24:37;;;;;;;17.02;4.68;;;6.60;99.90;;;;;;5085213;28;20043;-78
2021/12/29 08:27:04;;;;;;;17.33;4.35;;;6.60;99.90;;;;;;5072641;28;20110;-78
2021/12/29 08:29:30;;;;;;;21.27;4.70;;;6.60;99.90;;;;;;5107405;28;20047;-78
2021/12/29 08:31:57;;;;;;;18.05;4.20;;;6.60;99.90;;;;;;5075891;28;20431;-79
2021/12/29 08:34:24;;;;;;;18.42;4.28;;;6.70;99.90;;;;;;5057281;28;20585;-79
2021/12/29 08:36:50;;;;;;;19.15;3.72;;;6.60;99.90;;;;;;5076530;28;20051;-78
2021/12/29 08:39:18;;;;;;;17.55;3.80;;;6.70;99.90;;;;;;5058804;28;20378;-78
2021/12/29 08:41:45;;;;;;;14.77;3.58;;;6.80;99.90;;;;;;5090874;28;20105;-79
2021/12/29 08:44:11;;;;;;;19.75;3.42;;;6.70;99.90;;;;;;5067027;28;20461;-78
2021/12/29 08:46:37;;;;;;;16.80;3.67;;;6.70;99.90;;;;;;5075646;28;20601;-78
2021/12/29 08:49:03;;;;;;;16.15;3.58;;;6.70;99.90;;;;;;5076435;28;20047;-78
2021/12/29 08:51:30;;;;;;;12.48;2.95;;;6.70;99.90;;;;;;5076156;28;20378;-79
2021/12/29 08:53:57;;;;;;;19.63;3.40;;;6.60;99.90;;;;;;5091025;28;20454;-78
2021/12/29 08:56:24;;;;;;;12.05;3.50;;;6.60;99.90;;;;;;5067935;28;20051;-79
2021/12/29 08:58:51;;;;;;;18.58;3.67;;;6.60;99.90;;;;;;5109869;28;20381;-79
2021/12/29 09:01:18;;;;;;;14.30;3.20;;;6.60;99.90;;;;;;5107015;28;20558;-78
2021/12/29 09:03:44;;;;;;;21.95;4.10;;;7.00;99.90;;;;;;5090098;28;20060;-78
2021/12/29 09:06:11;;;;;;;17.20;3.22;;;6.50;99.90;;;;;;5092330;28;20040;-78
2021/12/29 09:08:37;;;;;;;16.65;2.80;;;7.60;99.90;;;;;;5076296;28;20147;-79
2021/12/29 09:11:03;;;;;;;15.40;2.63;;;6.50;99.90;;;;;;5075389;28;20051;-79
2021/12/29 09:13:29;;;;;;;19.50;2.75;;;6.70;99.90;;;;;;5091708;28;20521;-78
2021/12/29 09:15:57;;;;;;;22.38;3.38;;;6.40;99.90;;;;;;5075851;28;20472;-78
2021/12/29 09:18:29;;;;;;;21.10;3.67;;;6.40;99.90;;;;;;5075901;28;20048;-78
2021/12/29 09:20:58;;;;;;;22.20;3.28;;;6.50;99.90;;;;;;5075275;28;20047;-78
2021/12/29 09:23:24;;;;;;;23.75;3.90;;;6.40;99.90;;;;;;5090910;28;20055;-79
2021/12/29 09:25:50;;;;;;;29.00;4.32;;;6.40;99.90;;;;;;5067306;28;20477;-79
2021/12/29 09:28:18;;;;;;;25.45;3.90;;;6.40;99.90;;;;;;5075780;28;20508;-78
2021/12/29 09:30:46;;;;;;;17.77;3.60;;;6.40;99.90;;;;;;5076612;28;20081;-78
2021/12/29 09:33:15;;;;;;;26.08;4.80;;;6.50;99.90;;;;;;5090015;28;20396;-78
2021/12/29 09:35:41;;;;;;;25.85;4.15;;;6.40;99.90;;;;;;5109511;28;20043;-78
2021/12/29 09:38:08;;;;;;;17.52;3.75;;;6.50;99.90;;;;;;5075465;28;20049;-78
2021/12/29 09:40:34;;;;;;;23.58;5.00;;;6.50;99.90;;;;;;5074722;28;20056;-78
2021/12/29 09:43:00;;;;;;;24.30;4.95;;;6.50;99.90;;;;;;5058726;28;20082;-78
2021/12/29 09:45:27;;;;;;;21.88;5.10;;;6.50;99.90;;;;;;5074136;28;20039;-78
2021/12/29 09:47:57;;;;;;;32.25;5.57;;;6.50;99.90;;;;;;5093482;28;20404;-78
2021/12/29 09:50:26;;;;;;;27.15;5.43;;;6.60;99.90;;;;;;5074758;28;20085;-78
2021/12/29 09:52:52;;;;;;;23.77;5.18;;;6.60;99.90;;;;;;5089157;28;20054;-78
2021/12/29 09:55:20;;;;;;;33.00;6.07;;;6.60;99.90;;;;;;5058176;28;20043;-78
2021/12/29 09:57:47;;;;;;;32.00;6.82;;;6.90;99.90;;;;;;5089257;28;20097;-78
2021/12/29 10:00:21;;;;;;;31.88;5.47;;;6.60;99.90;;;;;;5088666;28;20055;-78
2021/12/29 10:02:48;;;;;;;21.02;5.13;;;6.60;99.90;;;;;;5083622;28;20055;-79
2021/12/29 10:05:14;;;;;;;25.73;4.50;;;6.60;99.90;;;;;;5072515;28;20097;-78
2021/12/29 10:07:40;;;;;;;19.90;4.40;;;6.50;99.90;;;;;;5050412;28;20050;-78
2021/12/29 10:10:16;;;;;;;24.52;4.88;;;6.50;99.90;;;;;;5075058;28;20043;-80
2021/12/29 10:12:44;;;;;;;21.33;4.88;;;6.50;99.90;;;;;;5072783;28;20040;-78
2021/12/29 10:15:09;;;;;;;21.02;5.80;;;6.60;99.90;;;;;;5087137;28;20035;-78
2021/12/29 10:17:35;;;;;;;22.63;5.68;;;6.60;99.90;;;;;;5074177;28;20511;-78
2021/12/29 10:20:09;;;;;;;22.55;5.18;;;6.60;99.90;;;;;;5073998;28;20050;-78
2021/12/29 10:22:35;;;;;;;25.63;5.18;;;6.60;99.90;;;;;;5087636;28;20488;-78
2021/12/29 10:25:13;;;;;;;20.85;5.35;;;6.60;99.90;;;;;;5065390;28;20507;-78
2021/12/29 10:27:40;;;;;;;22.27;4.88;;;6.70;99.90;;;;;;5087467;28;20411;-78
2021/12/29 10:30:21;;;;;;;17.63;4.38;;;6.70;99.90;;;;;;5073414;28;20142;-79
2021/12/29 10:32:47;;;;;;;22.75;4.82;;;6.70;99.90;;;;;;5088636;28;20071;-79
2021/12/29 10:35:29;;;;;;;18.08;4.05;;;6.80;99.90;;;;;;5088798;28;20597;-78
2021/12/29 10:38:11;;;;;;;21.83;4.28;;;7.60;99.90;;;;;;5089975;28;20040;-78
2021/12/29 10:40:37;;;;;;;19.60;4.60;;;6.90;99.90;;;;;;5071889;28;20050;-79
2021/12/29 10:43:02;;;;;;;25.40;4.70;;;6.90;99.90;;;;;;5072885;28;20039;-78
2021/12/29 10:45:31;;;;;;;18.25;4.55;;;6.90;99.90;;;;;;5090953;28;20043;-78
2021/12/29 10:47:58;;;;;;;17.00;4.35;;;7.00;99.90;;;;;;5090747;28;20050;-78
2021/12/29 10:50:26;;;;;;;21.23;4.30;;;7.00;99.90;;;;;;5073681;28;20051;-78
2021/12/29 10:52:55;;;;;;;16.35;4.15;;;7.00;99.90;;;;;;5089979;28;20079;-78
2021/12/29 10:55:35;;;;;;;15.90;3.80;;;7.10;99.90;;;;;;5073873;28;20736;-78
2021/12/29 10:58:16;;;;;;;13.27;4.00;;;7.10;99.90;;;;;;5073317;28;20044;-78
2021/12/29 11:00:49;;;;;;;12.95;4.28;;;7.10;99.90;;;;;;5091306;28;20055;-78
2021/12/29 11:03:19;;;;;;;15.38;3.95;;;7.20;99.90;;;;;;5086820;28;20051;-79
2021/12/29 11:05:50;;;;;;;13.27;4.15;;;7.20;99.90;;;;;;5083680;28;20390;-79
2021/12/29 11:08:17;;;;;;;16.13;4.25;;;7.20;99.90;;;;;;5073655;28;20043;-81
2021/12/29 11:10:46;;;;;;;10.27;4.13;;;7.20;99.90;;;;;;5105080;28;20403;-80
2021/12/29 11:13:22;;;;;;;14.65;4.10;;;7.20;99.90;;;;;;5063689;28;20054;-82
2021/12/29 11:15:51;;;;;;;13.35;3.63;;;7.20;99.90;;;;;;5067318;28;20050;-82
2021/12/29 11:18:16;;;;;;;12.57;4.20;;;7.30;99.90;;;;;;5088140;28;20047;-82
2021/12/29 11:20:42;;;;;;;13.75;4.28;;;7.30;99.90;;;;;;5088460;28;20667;-81
2021/12/29 11:23:20;;;;;;;10.93;3.78;;;7.30;99.90;;;;;;5071129;28;20078;-81
2021/12/29 11:25:47;;;;;;;12.10;3.60;;;7.40;99.90;;;;;;5065605;28;20047;-82
2021/12/29 11:28:25;;;;;;;12.93;4.22;;;7.40;99.90;;;;;;5053869;28;20039;-82
2021/12/29 11:30:52;;;;;;;11.55;4.05;;;7.40;99.90;;;;;;5084491;28;20084;-81
2021/12/29 11:33:19;;;;;;;11.60;4.50;;;7.40;99.90;;;;;;5033820;28;20039;-83
2021/12/29 11:38:36;;;;;;;9.13;4.47;;;7.50;99.90;;;;;;5104727;28;20052;-82
2021/12/29 11:41:04;;;;;;;9.18;4.28;;;7.50;99.90;;;;;;5089777;28;20073;-82
2021/12/29 11:43:31;;;;;;;13.40;4.40;;;7.00;99.90;;;;;;5066189;28;20699;-83
2021/12/29 11:45:57;;;;;;;7.68;4.25;;;7.50;99.90;;;;;;5087274;28;20127;-82
2021/12/29 11:48:24;;;;;;;12.65;4.53;;;7.50;99.90;;;;;;5069018;28;20061;-81
2021/12/29 11:50:57;;;;;;;11.55;4.50;;;7.60;99.90;;;;;;5107367;28;20043;-81
2021/12/29 11:53:35;;;;;;;10.38;4.25;;;7.60;99.90;;;;;;5071678;28;20059;-80
2021/12/29 11:56:04;;;;;;;11.68;4.70;;;7.50;99.90;;;;;;5073752;28;20047;-78
2021/12/29 11:58:41;;;;;;;9.45;4.03;;;7.60;99.90;;;;;;5086370;28;20043;-76
2021/12/29 12:01:14;;;;;;;9.88;4.18;;;7.60;99.90;;;;;;5088812;28;20081;-77
2021/12/29 12:03:56;;;;;;;12.57;4.78;;;7.60;99.90;;;;;;5081704;28;20079;-80
2021/12/29 12:06:26;;;;;;;9.15;4.28;;;7.50;99.90;;;;;;5058843;28;20067;-81
2021/12/29 12:09:07;;;;;;;9.85;4.13;;;7.50;99.90;;;;;;5088229;28;20132;-80
2021/12/29 12:11:35;;;;;;;12.25;4.60;;;7.60;99.90;;;;;;5072318;28;20528;-80
2021/12/29 12:14:01;;;;;;;11.85;4.53;;;7.60;99.90;;;;;;5087195;28;20246;-80
2021/12/29 12:16:27;;;;;;;14.07;5.20;;;7.60;99.90;;;;;;5070876;28;20485;-80
2021/12/29 12:18:56;;;;;;;12.57;4.78;;;7.80;99.90;;;;;;5088201;28;20047;-80
2021/12/29 12:21:23;;;;;;;10.10;5.15;;;7.60;99.90;;;;;;5071325;28;20045;-80
2021/12/29 12:23:50;;;;;;;12.27;4.65;;;7.60;99.90;;;;;;5069571;28;20048;-80
2021/12/29 12:26:20;;;;;;;11.40;4.50;;;7.60;99.90;;;;;;5065802;28;20097;-80
2021/12/29 12:28:48;;;;;;;11.65;4.78;;;7.60;99.90;;;;;;5062858;28;20929;-80
2021/12/29 12:31:21;;;;;;;9.27;5.50;;;7.60;99.90;;;;;;5081779;28;20055;-80
2021/12/29 12:33:46;;;;;;;9.55;5.35;;;7.70;99.90;;;;;;5079362;28;20048;-80
2021/12/29 12:36:12;;;;;;;15.07;5.28;;;7.60;99.90;;;;;;5069106;28;20097;-80
2021/12/29 12:38:38;;;;;;;13.80;5.60;;;7.60;99.90;;;;;;5079672;28;20548;-80
2021/12/29 12:41:08;;;;;;;11.05;5.57;;;7.60;99.90;;;;;;5069671;28;20104;-80
2021/12/29 12:43:47;;;;;;;11.38;5.43;;;7.60;99.90;;;;;;5083645;28;20419;-80
2021/12/29 12:46:13;;;;;;;16.38;5.35;;;7.50;99.90;;;;;;5063235;28;20067;-80
2021/12/29 12:48:40;;;;;;;12.32;5.05;;;7.60;99.90;;;;;;5082425;28;20048;-80
2021/12/29 12:51:17;;;;;;;11.65;5.72;;;7.50;99.90;;;;;;5080729;28;20067;-81
2021/12/29 12:53:44;;;;;;;12.43;4.97;;;7.60;99.90;;;;;;5082048;28;20485;-80
2021/12/29 12:56:16;;;;;;;14.77;5.13;;;7.50;99.90;;;;;;5084736;28;20036;-81
2021/12/29 12:58:45;;;;;;;11.07;5.55;;;7.50;99.90;;;;;;5066526;28;20074;-83